Time;durP1;ratioP1;P1;durP2;ratioP2;P2;SDS_P1;SDS_P2;PMS_P1;PMS_P2;Temp;Humidity;BMP_temperature;BMP_pressure;BME280_temperature;BME280_humidity;BME280_pressure;Samples;Min_cycle;Max_cycle;Signal;HPM_P1;HPM_P2
2023/04/21 00:01:11;;;;;;;27.67;19.05;;;4.10;99.90;;;;;;4954160;28;20093;-77
2023/04/21 00:03:37;;;;;;;27.92;19.30;;;4.10;99.90;;;;;;4953706;28;20160;-77
2023/04/21 00:06:06;;;;;;;25.60;18.65;;;4.10;99.90;;;;;;4953488;29;20094;-74
2023/04/21 00:08:33;;;;;;;25.75;18.65;;;4.00;99.90;;;;;;4936970;29;20107;-74
2023/04/21 00:10:58;;;;;;;28.23;19.23;;;4.10;99.90;;;;;;4950292;29;20027;-74
2023/04/21 00:13:24;;;;;;;26.52;18.48;;;4.00;99.90;;;;;;4953387;29;20366;-73
2023/04/21 00:15:50;;;;;;;24.60;17.17;;;4.00;99.90;;;;;;4954444;29;20496;-76
2023/04/21 00:18:19;;;;;;;27.25;18.83;;;3.90;99.90;;;;;;4942574;28;20053;-76
2023/04/21 00:20:44;;;;;;;29.83;20.17;;;3.90;99.90;;;;;;4954389;28;20031;-76
2023/04/21 00:23:10;;;;;;;28.20;20.17;;;3.80;99.90;;;;;;4953507;29;20388;-76
2023/04/21 00:25:36;;;;;;;31.95;19.17;;;3.80;99.90;;;;;;4955922;29;20027;-76
2023/04/21 00:28:02;;;;;;;27.10;19.00;;;3.80;99.90;;;;;;4952503;29;20058;-75
2023/04/21 00:30:28;;;;;;;29.13;19.02;;;3.80;99.90;;;;;;4954036;29;20035;-76
2023/04/21 00:32:53;;;;;;;28.02;18.20;;;3.80;99.90;;;;;;4953305;29;20378;-76
2023/04/21 00:35:19;;;;;;;26.55;18.95;;;3.90;99.90;;;;;;4947790;28;20650;-76
2023/04/21 00:37:44;;;;;;;29.50;18.92;;;3.80;99.90;;;;;;4953267;29;20448;-76
2023/04/21 00:40:10;;;;;;;26.77;18.80;;;3.80;99.90;;;;;;4953365;29;20118;-76
2023/04/21 00:42:36;;;;;;;29.20;19.52;;;3.90;99.90;;;;;;4936207;29;20114;-76
2023/04/21 00:45:03;;;;;;;28.67;19.80;;;3.90;99.90;;;;;;4953490;29;20106;-76
2023/04/21 00:47:29;;;;;;;26.27;18.27;;;3.90;99.90;;;;;;4953380;29;20114;-76
2023/04/21 00:49:56;;;;;;;24.38;17.33;;;3.90;99.90;;;;;;4953736;29;20028;-76
2023/04/21 00:52:23;;;;;;;30.27;18.75;;;3.90;99.90;;;;;;4948663;28;20034;-76
2023/04/21 00:54:49;;;;;;;27.98;18.20;;;3.80;99.90;;;;;;4939794;29;20105;-76
2023/04/21 00:57:15;;;;;;;25.85;17.90;;;3.80;99.90;;;;;;4952142;29;20046;-76
2023/04/21 00:59:40;;;;;;;27.63;18.13;;;3.80;99.90;;;;;;4954476;28;20034;-76
2023/04/21 01:02:06;;;;;;;29.05;18.58;;;3.80;99.90;;;;;;4953202;28;20050;-76
2023/04/21 01:04:35;;;;;;;26.63;18.67;;;3.80;99.90;;;;;;4953661;29;20082;-76
2023/04/21 01:07:02;;;;;;;28.48;19.75;;;3.80;99.90;;;;;;4952441;29;20121;-76
2023/04/21 01:09:28;;;;;;;28.27;19.00;;;3.80;99.90;;;;;;4953499;29;20432;-76
2023/04/21 01:12:04;;;;;;;30.40;20.88;;;3.80;99.90;;;;;;4944975;29;20031;-76
2023/04/21 01:14:30;;;;;;;31.55;20.58;;;3.80;99.90;;;;;;4947393;29;20066;-76
2023/04/21 01:16:56;;;;;;;29.25;19.90;;;3.70;99.90;;;;;;4947915;28;20059;-76
2023/04/21 01:19:23;;;;;;;31.45;20.90;;;3.80;99.90;;;;;;4935383;29;20664;-76
2023/04/21 01:21:52;;;;;;;29.65;19.63;;;3.70;99.90;;;;;;4952967;29;20019;-76
2023/04/21 01:24:18;;;;;;;33.45;22.08;;;3.70;99.90;;;;;;4952097;29;20035;-75
2023/04/21 01:26:48;;;;;;;36.80;23.15;;;3.70;99.90;;;;;;4935636;29;20039;-76
2023/04/21 01:29:16;;;;;;;37.53;24.33;;;3.70;99.90;;;;;;4949028;28;20433;-76
2023/04/21 01:31:42;;;;;;;39.95;24.42;;;3.70;99.90;;;;;;4956278;28;20144;-76
2023/04/21 01:34:08;;;;;;;39.90;24.40;;;3.70;99.90;;;;;;4956299;29;20078;-76
2023/04/21 01:36:37;;;;;;;37.15;23.00;;;3.70;99.90;;;;;;4956589;29;20040;-76
2023/04/21 01:39:03;;;;;;;36.30;24.30;;;3.70;99.90;;;;;;4956574;29;20587;-76
2023/04/21 01:41:29;;;;;;;40.42;25.55;;;3.70;99.90;;;;;;4956646;29;20027;-76
2023/04/21 01:43:55;;;;;;;45.17;27.95;;;3.70;99.90;;;;;;4939806;29;20480;-76
2023/04/21 01:46:20;;;;;;;45.30;27.15;;;3.70;99.90;;;;;;4954834;28;20098;-76
2023/04/21 01:48:46;;;;;;;42.85;25.27;;;3.70;99.90;;;;;;4942968;29;20031;-76
2023/04/21 01:51:11;;;;;;;42.30;24.95;;;3.70;99.90;;;;;;4955802;29;20058;-76
2023/04/21 01:53:37;;;;;;;38.88;25.10;;;3.70;99.90;;;;;;4956577;29;20031;-75
2023/04/21 01:56:03;;;;;;;38.97;25.40;;;3.70;99.90;;;;;;4955752;29;20069;-75
2023/04/21 01:58:28;;;;;;;41.72;25.10;;;3.70;99.90;;;;;;4954991;28;20514;-75
2023/04/21 02:00:54;;;;;;;40.50;24.08;;;3.70;99.90;;;;;;4955699;28;20031;-76
2023/04/21 02:03:20;;;;;;;39.75;24.83;;;3.60;99.90;;;;;;4951179;28;20189;-76
2023/04/21 02:05:45;;;;;;;34.47;21.83;;;3.50;99.90;;;;;;4960519;28;20023;-76
2023/04/21 02:08:11;;;;;;;36.83;22.90;;;3.50;99.90;;;;;;4955280;29;20043;-76
2023/04/21 02:10:37;;;;;;;36.28;22.40;;;3.40;99.90;;;;;;4956659;29;20380;-75
2023/04/21 02:13:02;;;;;;;41.47;24.73;;;3.30;99.90;;;;;;4954496;29;20027;-75
2023/04/21 02:15:28;;;;;;;37.80;22.88;;;3.20;99.90;;;;;;4956537;29;20111;-76
2023/04/21 02:17:53;;;;;;;40.65;24.13;;;3.20;99.90;;;;;;4955658;29;20039;-76
2023/04/21 02:20:19;;;;;;;39.90;23.45;;;3.10;99.90;;;;;;4955853;29;20102;-75
2023/04/21 02:22:45;;;;;;;42.30;25.83;;;3.10;99.90;;;;;;4953177;28;20059;-76
2023/04/21 02:25:10;;;;;;;46.22;27.20;;;3.00;99.90;;;;;;4955571;29;20042;-76
2023/04/21 02:27:36;;;;;;;43.15;26.25;;;3.00;99.90;;;;;;4955694;29;20409;-76
2023/04/21 02:30:02;;;;;;;47.70;26.50;;;3.00;99.90;;;;;;4955076;29;20114;-76
2023/04/21 02:32:28;;;;;;;50.80;27.02;;;3.00;99.90;;;;;;4955722;29;20393;-76
2023/04/21 02:34:54;;;;;;;45.22;25.40;;;3.00;99.90;;;;;;4956354;29;20027;-76
2023/04/21 02:37:20;;;;;;;51.38;28.35;;;3.10;99.90;;;;;;4954598;29;20050;-76
2023/04/21 02:39:45;;;;;;;45.75;26.13;;;3.10;99.90;;;;;;4957424;28;20027;-76
2023/04/21 02:42:11;;;;;;;43.00;25.02;;;3.10;99.90;;;;;;4937798;29;20039;-75
2023/04/21 02:44:37;;;;;;;52.58;27.33;;;3.10;99.90;;;;;;4956064;29;20023;-76
2023/04/21 02:47:03;;;;;;;49.92;27.35;;;3.00;99.90;;;;;;4955017;29;20059;-75
2023/04/21 02:49:28;;;;;;;44.45;25.90;;;3.00;99.90;;;;;;4955860;29;20415;-76
2023/04/21 02:51:54;;;;;;;44.92;26.08;;;2.90;99.90;;;;;;4955622;29;20037;-76
2023/04/21 02:54:20;;;;;;;42.53;25.65;;;2.90;99.90;;;;;;4963549;29;20295;-77
2023/04/21 02:56:45;;;;;;;48.45;26.35;;;2.80;99.90;;;;;;4966968;28;20039;-75
2023/04/21 02:59:15;;;;;;;45.95;25.45;;;2.70;99.90;;;;;;4962434;28;20040;-76
2023/04/21 03:01:41;;;;;;;46.47;25.77;;;2.70;99.90;;;;;;4959156;29;20392;-76
2023/04/21 03:04:06;;;;;;;47.30;25.95;;;2.70;99.90;;;;;;4957356;28;20047;-76
2023/04/21 03:06:32;;;;;;;41.60;24.42;;;2.70;99.90;;;;;;4961871;29;20031;-75
2023/04/21 03:08:58;;;;;;;51.00;27.80;;;2.60;99.90;;;;;;4955621;29;20481;-76
2023/04/21 03:11:23;;;;;;;54.55;27.80;;;2.60;99.90;;;;;;4955028;29;20066;-74
2023/04/21 03:13:49;;;;;;;56.45;29.17;;;;;;;;;;4955668;29;20113;-76
2023/04/21 03:16:15;;;;;;;56.97;30.77;;;;;;;;;;4957643;28;20031;-74
2023/04/21 03:18:41;;;;;;;63.38;30.63;;;2.80;99.90;;;;;;4947726;29;20020;-76
2023/04/21 03:21:07;;;;;;;57.03;30.60;;;2.80;99.90;;;;;;4954539;29;20031;-75
2023/04/21 03:23:32;;;;;;;55.75;30.02;;;2.80;99.90;;;;;;4954369;29;20030;-75
2023/04/21 03:25:58;;;;;;;54.17;29.20;;;2.80;99.90;;;;;;4955122;29;20400;-75
2023/04/21 03:28:23;;;;;;;56.75;30.08;;;2.80;99.90;;;;;;4953344;28;20038;-75
2023/04/21 03:30:49;;;;;;;56.95;29.73;;;2.80;99.90;;;;;;4944051;29;20035;-75
2023/04/21 03:33:15;;;;;;;61.60;31.58;;;2.80;99.90;;;;;;4953409;29;20103;-75
2023/04/21 03:35:40;;;;;;;60.90;31.02;;;2.80;99.90;;;;;;4954762;29;20038;-75
2023/04/21 03:38:06;;;;;;;56.90;29.45;;;2.80;99.90;;;;;;4953867;29;20094;-75
2023/04/21 03:40:32;;;;;;;55.55;29.88;;;2.80;99.90;;;;;;4955201;29;20086;-75
2023/04/21 03:42:57;;;;;;;61.67;31.05;;;2.70;99.90;;;;;;4937404;29;20082;-75
2023/04/21 03:45:23;;;;;;;62.42;31.92;;;2.70;99.90;;;;;;4954336;29;20059;-74
2023/04/21 03:47:53;;;;;;;73.20;35.15;;;2.80;99.90;;;;;;4941492;28;20400;-74
2023/04/21 03:50:19;;;;;;;;;;;2.80;99.90;;;;;;4959334;28;20628;-75
2023/04/21 03:52:45;;;;;;;59.45;30.25;;;2.80;99.90;;;;;;4954468;29;19918;-75
2023/04/21 03:55:10;;;;;;;67.15;32.85;;;2.90;99.90;;;;;;4953651;28;20035;-82
2023/04/21 03:57:40;;;;;;;65.30;34.05;;;2.90;99.90;;;;;;4953921;29;20031;-76
2023/04/21 04:00:08;;;;;;;;;;;2.90;99.90;;;;;;4954811;28;20041;-77
2023/04/21 04:02:33;;;;;;;66.03;31.27;;;2.90;99.90;;;;;;4954557;28;20383;-76
2023/04/21 04:04:59;;;;;;;69.25;33.65;;;2.90;99.90;;;;;;4948782;29;20027;-75
2023/04/21 04:07:25;;;;;;;71.53;33.72;;;2.90;99.90;;;;;;4952726;29;20066;-75
2023/04/21 04:09:50;;;;;;;69.00;33.35;;;2.90;99.90;;;;;;4954807;29;20073;-76
2023/04/21 04:12:16;;;;;;;63.42;31.40;;;2.90;99.90;;;;;;4936527;29;20031;-76
2023/04/21 04:14:41;;;;;;;64.43;32.08;;;2.90;99.90;;;;;;4955097;29;20438;-76
2023/04/21 04:17:07;;;;;;;64.10;33.58;;;2.90;99.90;;;;;;4948730;28;20101;-77
2023/04/21 04:19:32;;;;;;;70.10;34.38;;;2.90;99.90;;;;;;4948576;29;20035;-76
2023/04/21 04:22:01;;;;;;;63.97;32.20;;;3.00;99.90;;;;;;4947543;29;20118;-74
2023/04/21 04:24:27;;;;;;;64.25;32.95;;;2.90;99.90;;;;;;4951449;29;20031;-74
2023/04/21 04:26:56;;;;;;;61.53;32.05;;;3.00;99.90;;;;;;4946151;29;20039;-76
2023/04/21 04:29:22;;;;;;;53.28;30.00;;;3.00;99.90;;;;;;4948731;28;20023;-76
2023/04/21 04:31:51;;;;;;;60.63;31.88;;;3.00;99.90;;;;;;4950739;29;20388;-76
2023/04/21 04:34:16;;;;;;;59.97;32.13;;;2.90;99.90;;;;;;4950571;29;20090;-76
2023/04/21 04:36:42;;;;;;;67.97;35.00;;;2.90;99.90;;;;;;4950703;29;20047;-75
2023/04/21 04:39:09;;;;;;;75.63;36.60;;;2.90;99.90;;;;;;4950675;29;20034;-76
2023/04/21 04:41:35;;;;;;;72.97;34.95;;;3.00;99.90;;;;;;4948778;29;20058;-76
2023/04/21 04:44:03;;;;;;;79.70;37.67;;;3.00;99.90;;;;;;4945629;29;20071;-74
2023/04/21 04:46:29;;;;;;;81.88;37.50;;;3.00;99.90;;;;;;4944992;28;20023;-75
2023/04/21 04:48:54;;;;;;;77.45;36.55;;;3.10;99.90;;;;;;4953677;29;20031;-76
2023/04/21 04:51:20;;;;;;;64.57;34.17;;;3.10;99.90;;;;;;4952585;29;20031;-74
2023/04/21 04:53:45;;;;;;;67.32;36.13;;;3.20;99.90;;;;;;4953605;29;20023;-76
2023/04/21 04:56:11;;;;;;;65.13;34.72;;;3.30;99.90;;;;;;4951956;29;20090;-75
2023/04/21 04:58:36;;;;;;;56.42;33.30;;;3.50;99.90;;;;;;4952624;29;20102;-75
2023/04/21 05:01:12;;;;;;;60.10;34.13;;;3.50;99.90;;;;;;4953056;29;20030;-75
2023/04/21 05:03:38;;;;;;;57.88;32.83;;;3.50;99.90;;;;;;4950628;28;20130;-74
2023/04/21 05:06:04;;;;;;;69.35;35.80;;;3.50;99.90;;;;;;4942582;28;20043;-74
2023/04/21 05:08:29;;;;;;;59.53;32.53;;;3.60;99.90;;;;;;4954529;28;20039;-75
2023/04/21 05:10:55;;;;;;;62.15;33.38;;;3.60;99.90;;;;;;4948939;29;20480;-76
2023/04/21 05:13:20;;;;;;;62.05;33.58;;;3.60;99.90;;;;;;4952225;29;20260;-76
2023/04/21 05:15:46;;;;;;;62.33;34.17;;;3.70;99.90;;;;;;4953461;29;20464;-78
2023/04/21 05:18:12;;;;;;;65.55;35.55;;;3.80;99.90;;;;;;4952229;29;20038;-77
2023/04/21 05:20:40;;;;;;;57.92;34.75;;;3.90;99.90;;;;;;4936630;29;20027;-76
2023/04/21 05:23:06;;;;;;;58.90;34.28;;;4.00;99.90;;;;;;4952124;29;20031;-76
2023/04/21 05:25:32;;;;;;;63.58;36.55;;;4.00;99.90;;;;;;4947839;28;20086;-76
2023/04/21 05:27:57;;;;;;;58.72;33.65;;;4.00;99.90;;;;;;4951784;29;20413;-76
2023/04/21 05:30:23;;;;;;;58.20;34.03;;;4.10;99.90;;;;;;4951745;28;20050;-75
2023/04/21 05:32:48;;;;;;;65.30;36.55;;;4.20;99.90;;;;;;4947756;28;20388;-76
2023/04/21 05:35:14;;;;;;;62.50;36.47;;;4.20;99.90;;;;;;4952665;29;20030;-74
2023/04/21 05:37:39;;;;;;;56.67;33.40;;;4.30;99.90;;;;;;4954481;29;20126;-76
2023/04/21 05:40:06;;;;;;;53.15;33.80;;;4.40;99.90;;;;;;4952425;29;20034;-76
2023/04/21 05:42:31;;;;;;;60.22;35.50;;;4.40;99.90;;;;;;4952539;29;20158;-76
2023/04/21 05:44:57;;;;;;;49.60;32.05;;;4.40;99.90;;;;;;4954663;28;20103;-75
2023/04/21 05:47:22;;;;;;;55.72;33.42;;;4.60;99.90;;;;;;4951850;29;20490;-76
2023/04/21 05:49:52;;;;;;;50.10;32.33;;;4.60;99.90;;;;;;4946988;28;20161;-76
2023/04/21 05:52:18;;;;;;;48.60;31.15;;;4.70;99.90;;;;;;4945190;29;20043;-74
2023/04/21 05:54:44;;;;;;;53.28;32.28;;;4.70;99.90;;;;;;4947748;28;20051;-74
2023/04/21 05:57:10;;;;;;;51.88;32.92;;;4.70;99.90;;;;;;4950887;29;20489;-77
2023/04/21 05:59:35;;;;;;;53.42;31.63;;;4.80;99.90;;;;;;4947344;28;20612;-76
2023/04/21 06:02:02;;;;;;;43.63;28.95;;;4.90;99.90;;;;;;4942186;28;20034;-73
2023/04/21 06:04:28;;;;;;;45.75;29.45;;;5.00;99.90;;;;;;4945042;29;20122;-75
2023/04/21 06:06:53;;;;;;;40.42;26.42;;;5.20;99.90;;;;;;4948146;29;20114;-74
2023/04/21 06:09:19;;;;;;;40.42;27.88;;;5.20;99.90;;;;;;4933797;29;20116;-79
2023/04/21 06:11:45;;;;;;;41.63;27.73;;;5.20;99.90;;;;;;4951888;29;20028;-83
2023/04/21 06:14:10;;;;;;;42.00;28.58;;;5.20;99.90;;;;;;4950958;29;20035;-74
2023/04/21 06:16:36;;;;;;;45.15;28.13;;;5.30;99.90;;;;;;4950401;28;20031;-70
2023/04/21 06:19:01;;;;;;;38.80;26.40;;;5.40;99.90;;;;;;4951971;29;20542;-72
2023/04/21 06:21:27;;;;;;;42.88;28.55;;;5.40;99.90;;;;;;4954693;29;20065;-70
2023/04/21 06:23:53;;;;;;;45.13;28.10;;;5.60;99.90;;;;;;4953822;29;20034;-70
2023/04/21 06:26:18;;;;;;;42.08;28.45;;;5.70;99.90;;;;;;4954043;29;20054;-70
2023/04/21 06:28:44;;;;;;;41.50;26.80;;;5.80;99.90;;;;;;4954550;29;20424;-70
2023/04/21 06:31:14;;;;;;;46.83;30.17;;;6.00;99.90;;;;;;4952088;29;20435;-73
2023/04/21 06:33:39;;;;;;;38.92;27.45;;;6.10;99.90;;;;;;4958109;29;20027;-73
2023/04/21 06:36:05;;;;;;;39.10;27.52;;;6.20;99.90;;;;;;4946420;28;20492;-71
2023/04/21 06:38:31;;;;;;;40.72;26.75;;;6.40;99.90;;;;;;4955920;29;20062;-73
2023/04/21 06:40:57;;;;;;;35.40;24.80;;;6.60;99.90;;;;;;4955870;29;20114;-74
2023/04/21 06:43:22;;;;;;;35.78;24.17;;;6.80;99.90;;;;;;4943949;29;20090;-72
2023/04/21 06:45:48;;;;;;;35.10;23.92;;;7.00;99.90;;;;;;4949960;29;20023;-71
2023/04/21 06:48:13;;;;;;;33.83;24.10;;;7.10;99.90;;;;;;4948267;29;20063;-75
2023/04/21 06:50:39;;;;;;;36.28;24.85;;;7.20;99.90;;;;;;4954838;29;20023;-75
2023/04/21 06:53:05;;;;;;;34.65;23.85;;;7.40;99.90;;;;;;4952181;29;20066;-74
2023/04/21 06:55:31;;;;;;;31.65;24.00;;;7.50;99.90;;;;;;4954147;29;20062;-74
2023/04/21 06:57:56;;;;;;;30.40;22.58;;;7.40;99.90;;;;;;4960262;28;20027;-74
2023/04/21 07:00:22;;;;;;;33.22;22.65;;;7.30;99.90;;;;;;4949808;28;20047;-81
2023/04/21 07:02:48;;;;;;;33.90;22.15;;;7.30;99.90;;;;;;4953364;29;20039;-78
2023/04/21 07:05:13;;;;;;;31.70;22.10;;;7.20;99.90;;;;;;4953933;29;20038;-75
2023/04/21 07:07:39;;;;;;;30.73;22.13;;;7.10;99.90;;;;;;4952692;29;20059;-76
2023/04/21 07:10:06;;;;;;;33.72;22.10;;;7.00;99.90;;;;;;4954370;29;20034;-75
2023/04/21 07:12:31;;;;;;;33.03;22.60;;;7.00;99.90;;;;;;4954223;29;20059;-76
2023/04/21 07:14:57;;;;;;;31.08;23.45;;;7.10;99.90;;;;;;4954053;29;20057;-76
2023/04/21 07:17:22;;;;;;;32.90;24.13;;;7.10;99.90;;;;;;4953350;29;20421;-76
2023/04/21 07:19:48;;;;;;;32.47;24.35;;;7.10;99.90;;;;;;4954313;29;20031;-75
2023/04/21 07:22:14;;;;;;;32.63;23.10;;;7.10;99.90;;;;;;4953473;29;20051;-74
2023/04/21 07:24:39;;;;;;;33.83;23.95;;;7.20;99.90;;;;;;4950342;29;20115;-76
2023/04/21 07:27:05;;;;;;;30.60;22.35;;;7.30;99.90;;;;;;4946386;28;20480;-75
2023/04/21 07:29:30;;;;;;;34.40;22.40;;;7.30;99.90;;;;;;4944463;28;20487;-76
2023/04/21 07:31:57;;;;;;;35.05;22.63;;;7.40;99.90;;;;;;4950166;28;20381;-75
2023/04/21 07:34:23;;;;;;;30.50;22.10;;;7.50;99.90;;;;;;4950926;29;20121;-76
2023/04/21 07:36:50;;;;;;;29.40;21.38;;;7.60;99.90;;;;;;4951714;29;20118;-76
2023/04/21 07:39:16;;;;;;;30.08;21.55;;;7.80;99.90;;;;;;4953690;29;20034;-77
2023/04/21 07:41:42;;;;;;;30.75;22.92;;;8.00;99.90;;;;;;4953854;29;20024;-77
2023/04/21 07:44:07;;;;;;;33.05;21.63;;;8.20;99.90;;;;;;4953133;29;20035;-75
2023/04/21 07:46:33;;;;;;;30.60;20.25;;;8.40;99.90;;;;;;4952947;29;20106;-76
2023/04/21 07:48:59;;;;;;;29.48;20.05;;;8.70;99.90;;;;;;4953927;29;20042;-74
2023/04/21 07:51:26;;;;;;;29.02;20.73;;;8.80;99.90;;;;;;4946548;28;20183;-75
2023/04/21 07:53:52;;;;;;;26.40;18.40;;;9.00;99.90;;;;;;4953374;29;20393;-75
2023/04/21 07:56:18;;;;;;;26.42;18.95;;;9.10;99.90;;;;;;4952594;29;20036;-76
2023/04/21 07:58:44;;;;;;;24.63;19.20;;;9.10;99.90;;;;;;4953407;29;20027;-75
2023/04/21 08:01:09;;;;;;;24.33;18.27;;;9.20;99.90;;;;;;4955422;28;20433;-76
2023/04/21 08:03:35;;;;;;;25.35;18.50;;;9.40;99.90;;;;;;4960638;28;20174;-76
2023/04/21 08:06:01;;;;;;;21.67;16.63;;;9.50;99.90;;;;;;4953639;29;20047;-75
2023/04/21 08:08:27;;;;;;;20.38;16.80;;;;;;;;;;4952601;29;20480;-75
2023/04/21 08:10:53;;;;;;;22.88;16.58;;;;;;;;;;4956557;29;20031;-77
2023/04/21 08:13:23;;;;;;;20.17;16.02;;;;;;;;;;4951711;28;20024;-76
2023/04/21 08:15:52;;;;;;;20.50;16.58;;;10.40;99.90;;;;;;4953645;29;20486;-76
2023/04/21 08:18:17;;;;;;;21.90;16.83;;;10.50;99.90;;;;;;4952642;29;20035;-76
2023/04/21 08:20:45;;;;;;;20.00;15.68;;;10.60;99.90;;;;;;4951788;29;20090;-75
2023/04/21 08:23:11;;;;;;;18.83;15.48;;;10.60;99.90;;;;;;4951241;29;20058;-75
2023/04/21 08:25:37;;;;;;;19.95;15.25;;;10.70;99.90;;;;;;4953132;29;20473;-76
2023/04/21 08:28:02;;;;;;;23.13;16.52;;;10.70;99.90;;;;;;4951871;29;20042;-74
2023/04/21 08:30:28;;;;;;;21.60;15.30;;;10.80;99.90;;;;;;4952760;29;20094;-75
2023/04/21 08:32:53;;;;;;;22.27;14.90;;;10.90;99.90;;;;;;4952979;29;20509;-75
2023/04/21 08:35:19;;;;;;;24.67;15.63;;;10.90;99.90;;;;;;4952925;29;20057;-74
2023/04/21 08:37:45;;;;;;;23.20;16.30;;;10.70;99.90;;;;;;4951387;29;20519;-75
2023/04/21 08:40:11;;;;;;;22.20;15.82;;;10.50;99.90;;;;;;4952822;28;20075;-75
2023/04/21 08:42:38;;;;;;;22.00;16.00;;;10.40;99.90;;;;;;4952839;29;20042;-76
2023/04/21 08:45:05;;;;;;;22.98;16.27;;;10.40;99.90;;;;;;4952480;29;20035;-76
2023/04/21 08:47:31;;;;;;;23.30;16.40;;;10.40;99.90;;;;;;4953055;29;20035;-76
2023/04/21 08:49:58;;;;;;;22.00;14.80;;;10.50;99.90;;;;;;4953461;29;20031;-76
2023/04/21 08:52:24;;;;;;;22.42;14.77;;;10.60;99.90;;;;;;4950353;29;20496;-76
2023/04/21 08:54:52;;;;;;;20.17;14.52;;;10.80;99.90;;;;;;4945498;28;20039;-76
2023/04/21 08:57:18;;;;;;;19.17;14.73;;;10.80;99.90;;;;;;4952905;29;20118;-75
2023/04/21 08:59:44;;;;;;;20.92;15.10;;;10.90;99.90;;;;;;4937181;29;20059;-77
2023/04/21 09:02:14;;;;;;;18.95;14.70;;;10.90;99.90;;;;;;4934743;29;20497;-76
2023/04/21 09:04:45;;;;;;;18.38;13.85;;;10.90;99.90;;;;;;4959279;28;20055;-77
2023/04/21 09:07:11;;;;;;;13.95;12.05;;;11.00;99.90;;;;;;4951788;29;20529;-77
2023/04/21 09:10:06;;;;;;;19.98;15.25;;;11.00;99.90;;;;;;4953282;29;20027;-77
2023/04/21 09:12:32;;;;;;;20.23;14.23;;;11.20;99.90;;;;;;4930902;29;20706;-75
2023/04/21 09:14:59;;;;;;;13.70;11.40;;;11.30;99.90;;;;;;4953286;29;20059;-75
2023/04/21 09:17:32;;;;;;;17.13;11.30;;;11.50;99.90;;;;;;4952651;29;20031;-75
2023/04/21 09:20:11;;;;;;;13.05;10.07;;;;;;;;;;4953229;29;20027;-76
2023/04/21 09:22:37;;;;;;;10.80;8.68;;;;;;;;;;4951687;29;20033;-77
2023/04/21 09:25:03;;;;;;;12.02;8.02;;;;;;;;;;4953022;29;20066;-74
2023/04/21 09:27:29;;;;;;;10.88;7.78;;;;;;;;;;4956412;28;20046;-79
2023/04/21 09:30:01;;;;;;;10.98;8.43;;;;;;;;;;4953463;29;20036;-77
2023/04/21 09:32:27;;;;;;;9.30;7.53;;;;;;;;;;4936003;29;20032;-77
2023/04/21 09:34:59;;;;;;;10.68;7.47;;;;;;;;;;4948331;29;20030;-79
2023/04/21 09:37:25;;;;;;;8.77;7.05;;;;;;;;;;4949007;29;20051;-76
2023/04/21 09:39:51;;;;;;;8.45;6.97;;;;;;;;;;4952463;29;20038;-78
2023/04/21 09:42:17;;;;;;;8.50;7.00;;;;;;;;;;4952150;29;20028;-76
2023/04/21 09:44:43;;;;;;;8.95;6.68;;;;;;;;;;4952632;29;20030;-77
2023/04/21 09:47:11;;;;;;;10.02;7.40;;;;;;;;;;4949800;29;20110;-75
2023/04/21 09:49:43;;;;;;;9.75;6.50;;;;;;;;;;4951546;29;20136;-74
2023/04/21 09:52:10;;;;;;;9.35;6.82;;;;;;;;;;4941312;28;20031;-77
2023/04/21 09:54:47;;;;;;;8.25;6.80;;;13.40;99.90;;;;;;4949612;29;20063;-76
2023/04/21 09:57:19;;;;;;;8.27;5.93;;;13.40;99.90;;;;;;4950057;29;20036;-77
2023/04/21 09:59:46;;;;;;;7.32;6.28;;;13.40;99.90;;;;;;4954365;29;20032;-77
2023/04/21 10:02:12;;;;;;;10.27;6.78;;;13.50;99.90;;;;;;4954635;29;20031;-76
2023/04/21 10:04:40;;;;;;;10.18;7.35;;;13.70;99.90;;;;;;4955116;29;20039;-77
2023/04/21 10:07:06;;;;;;;7.47;5.85;;;13.60;99.90;;;;;;4956419;28;20031;-76
2023/04/21 10:09:41;;;;;;;8.75;6.60;;;13.60;99.90;;;;;;4962789;28;20337;-76
2023/04/21 10:12:08;;;;;;;12.75;8.93;;;13.70;99.90;;;;;;4952863;29;20037;-77
2023/04/21 10:14:34;;;;;;;13.60;9.45;;;13.90;99.90;;;;;;4955536;29;20374;-76
2023/04/21 10:17:07;;;;;;;10.00;7.50;;;14.10;99.90;;;;;;4953152;29;20047;-73
2023/04/21 10:19:38;;;;;;;14.95;8.63;;;14.40;99.90;;;;;;4955315;29;20031;-76
2023/04/21 10:22:09;;;;;;;11.93;8.25;;;14.60;99.90;;;;;;4946480;28;20513;-76
2023/04/21 10:24:39;;;;;;;14.30;9.85;;;14.60;99.90;;;;;;4950761;28;20357;-76
2023/04/21 10:27:08;;;;;;;;;;;14.80;99.90;;;;;;4945972;28;20035;-76
2023/04/21 10:29:34;;;;;;;11.95;8.50;;;14.80;99.90;;;;;;4950185;29;19971;-77
2023/04/21 10:31:59;;;;;;;12.63;9.30;;;14.80;99.90;;;;;;4952979;29;20098;-74
2023/04/21 10:34:25;;;;;;;13.32;9.63;;;14.80;99.90;;;;;;4950547;29;20034;-76
2023/04/21 10:37:10;;;;;;;10.23;8.23;;;15.00;99.90;;;;;;4943966;28;20050;-76
2023/04/21 10:39:43;;;;;;;14.75;9.57;;;15.00;99.90;;;;;;4954113;29;20031;-77
2023/04/21 10:42:12;;;;;;;11.98;9.40;;;15.20;99.90;;;;;;4951016;29;20028;-78
2023/04/21 10:45:05;;;;;;;12.35;9.15;;;15.30;99.90;;;;;;4948633;29;20023;-75
2023/04/21 10:47:42;;;;;;;11.70;9.23;;;15.40;99.90;;;;;;4948026;29;20047;-76
2023/04/21 10:50:22;;;;;;;12.68;9.82;;;15.40;99.90;;;;;;4951513;29;20050;-77
2023/04/21 10:53:08;;;;;;;13.43;9.88;;;15.60;99.90;;;;;;4945365;28;20034;-76
2023/04/21 10:55:34;;;;;;;13.55;10.05;;;15.80;99.90;;;;;;4946967;29;20039;-77
2023/04/21 10:58:06;;;;;;;12.07;9.77;;;15.80;99.90;;;;;;4954064;29;20384;-73
2023/04/21 11:00:32;;;;;;;13.05;9.68;;;15.70;99.90;;;;;;4953588;29;20042;-77
2023/04/21 11:03:02;;;;;;;11.30;9.70;;;15.70;99.90;;;;;;4953343;28;20058;-78
2023/04/21 11:05:30;;;;;;;10.68;9.23;;;15.70;99.90;;;;;;4953878;29;20042;-77
2023/04/21 11:08:06;;;;;;;11.55;9.18;;;15.60;99.90;;;;;;4954108;29;20542;-76
2023/04/21 11:10:42;;;;;;;10.13;8.35;;;15.70;99.90;;;;;;4954072;28;20034;-77
2023/04/21 11:13:08;;;;;;;10.10;8.30;;;15.70;99.90;;;;;;4946452;29;20037;-77
2023/04/21 11:15:33;;;;;;;11.52;8.93;;;16.00;99.90;;;;;;4954557;29;20110;-77
2023/04/21 11:17:59;;;;;;;10.13;8.45;;;16.00;99.90;;;;;;4950268;29;20043;-74
2023/04/21 11:20:25;;;;;;;9.70;8.25;;;;;;;;;;4954063;29;20059;-76
2023/04/21 11:22:52;;;;;;;9.43;8.18;;;16.70;99.90;;;;;;4954843;29;20030;-76
2023/04/21 11:25:18;;;;;;;8.73;7.50;;;16.70;99.90;;;;;;4954037;29;20039;-77
2023/04/21 11:27:53;;;;;;;8.25;7.22;;;16.90;99.90;;;;;;4953780;29;20054;-75
2023/04/21 11:30:19;;;;;;;9.93;7.97;;;17.10;99.90;;;;;;4952070;29;20028;-75
2023/04/21 11:32:45;;;;;;;9.60;7.82;;;17.30;99.90;;;;;;4954432;29;20222;-78
2023/04/21 11:35:11;;;;;;;11.52;8.43;;;17.30;99.90;;;;;;4954450;29;20445;-77
2023/04/21 11:37:37;;;;;;;10.57;7.38;;;;;;;;;;4954240;29;20047;-76
2023/04/21 11:40:05;;;;;;;8.50;7.40;;;17.60;99.90;;;;;;4953168;29;21069;-76
2023/04/21 11:42:31;;;;;;;9.60;7.47;;;;;;;;;;4956128;29;20040;-77
2023/04/21 11:44:57;;;;;;;9.95;7.63;;;;;;;;;;4954047;29;20102;-78
2023/04/21 11:47:29;;;;;;;9.90;8.13;;;;;;;;;;4960212;29;20031;-76
2023/04/21 11:49:55;;;;;;;7.85;6.68;;;18.80;99.90;;;;;;4955863;29;20026;-76
2023/04/21 11:52:22;;;;;;;8.65;7.75;;;;;;;;;;4947730;28;20027;-75
2023/04/21 11:54:54;;;;;;;10.52;7.40;;;;;;;;;;4960182;29;20042;-74
2023/04/21 11:57:21;;;;;;;9.27;7.20;;;;;;;;;;4962813;29;20217;-75
2023/04/21 11:59:47;;;;;;;7.10;6.40;;;;;;;;;;4967419;29;20036;-74
2023/04/21 12:02:21;;;;;;;7.15;6.45;;;;;;;;;;4958843;29;20059;-75
2023/04/21 12:04:56;;;;;;;8.82;7.70;;;;;;;;;;4969994;29;20046;-75
2023/04/21 12:07:22;;;;;;;7.93;6.78;;;;;;;;;;4967862;29;20083;-75
2023/04/21 12:09:51;;;;;;;6.80;6.10;;;20.60;99.90;;;;;;4968640;29;20093;-74
2023/04/21 12:12:16;;;;;;;7.53;6.72;;;20.90;98.00;;;;;;4966834;29;20027;-73
2023/04/21 12:14:43;;;;;;;10.93;7.70;;;21.00;97.50;;;;;;4950426;28;20036;-76
2023/04/21 12:17:09;;;;;;;8.05;6.90;;;20.50;97.60;;;;;;4954889;29;20039;-75
2023/04/21 12:19:39;;;;;;;7.70;6.85;;;19.80;97.90;;;;;;4958540;29;20090;-77
2023/04/21 12:22:13;;;;;;;7.87;6.80;;;19.50;98.20;;;;;;4952973;29;20062;-75
2023/04/21 12:24:39;;;;;;;5.40;4.90;;;19.70;99.00;;;;;;4953275;29;20692;-75
2023/04/21 12:27:06;;;;;;;8.45;6.10;;;20.00;98.60;;;;;;4952113;29;20043;-76
2023/04/21 12:29:37;;;;;;;5.63;5.03;;;;;;;;;;4952707;29;20102;-74
2023/04/21 12:32:03;;;;;;;7.40;6.68;;;;;;;;;;4951141;29;20031;-74
2023/04/21 12:34:29;;;;;;;6.55;5.95;;;;;;;;;;4953138;29;20046;-74
2023/04/21 12:36:55;;;;;;;6.60;5.95;;;;;;;;;;4952140;29;20027;-75
2023/04/21 12:39:21;;;;;;;7.13;5.70;;;;;;;;;;4946239;29;20035;-77
2023/04/21 12:41:47;;;;;;;6.50;5.20;;;;;;;;;;4952269;29;20094;-73
2023/04/21 12:44:13;;;;;;;4.78;4.32;;;22.90;92.50;;;;;;4947340;29;20054;-74
2023/04/21 12:46:40;;;;;;;5.07;4.22;;;23.20;92.40;;;;;;4952365;29;20159;-73
2023/04/21 12:49:07;;;;;;;6.20;4.82;;;23.30;91.10;;;;;;4951430;29;20023;-73